sensor_id;sensor_type;location;lat;lon;timestamp;temperature;humidity
21169;DHT22;10742;51.816;8.662;2023-09-12T00:02:56;26.30;91.40
21169;DHT22;10742;51.816;8.662;2023-09-12T00:06:00;26.30;91.40
21169;DHT22;10742;51.816;8.662;2023-09-12T00:09:03;26.30;91.40
21169;DHT22;10742;51.816;8.662;2023-09-12T00:12:07;26.30;91.40
21169;DHT22;10742;51.816;8.662;2023-09-12T00:15:10;26.30;91.40
21169;DHT22;10742;51.816;8.662;2023-09-12T00:18:12;26.30;91.40
21169;DHT22;10742;51.816;8.662;2023-09-12T00:21:14;26.30;91.40
21169;DHT22;10742;51.816;8.662;2023-09-12T00:24:17;26.30;91.50
21169;DHT22;10742;51.816;8.662;2023-09-12T00:27:19;26.20;91.50
21169;DHT22;10742;51.816;8.662;2023-09-12T00:30:21;26.20;91.50
21169;DHT22;10742;51.816;8.662;2023-09-12T00:33:24;26.20;91.60
21169;DHT22;10742;51.816;8.662;2023-09-12T00:36:27;26.10;91.60
21169;DHT22;10742;51.816;8.662;2023-09-12T00:39:29;26.10;91.60
21169;DHT22;10742;51.816;8.662;2023-09-12T00:42:32;26.00;91.60
21169;DHT22;10742;51.816;8.662;2023-09-12T00:45:34;26.00;91.70
21169;DHT22;10742;51.816;8.662;2023-09-12T00:48:38;25.90;91.80
21169;DHT22;10742;51.816;8.662;2023-09-12T00:51:41;25.90;91.90
21169;DHT22;10742;51.816;8.662;2023-09-12T00:54:44;25.80;91.90
21169;DHT22;10742;51.816;8.662;2023-09-12T00:57:46;25.80;92.10
21169;DHT22;10742;51.816;8.662;2023-09-12T01:00:49;25.80;92.20
21169;DHT22;10742;51.816;8.662;2023-09-12T01:03:52;25.80;92.20
21169;DHT22;10742;51.816;8.662;2023-09-12T01:06:56;25.70;92.30
21169;DHT22;10742;51.816;8.662;2023-09-12T01:09:58;25.70;92.40
21169;DHT22;10742;51.816;8.662;2023-09-12T01:13:01;25.70;92.40
21169;DHT22;10742;51.816;8.662;2023-09-12T01:16:04;25.60;92.50
21169;DHT22;10742;51.816;8.662;2023-09-12T01:19:07;25.60;92.50
21169;DHT22;10742;51.816;8.662;2023-09-12T01:29:02;25.50;92.90
21169;DHT22;10742;51.816;8.662;2023-09-12T01:32:06;25.50;92.80
21169;DHT22;10742;51.816;8.662;2023-09-12T01:35:08;25.50;92.90
21169;DHT22;10742;51.816;8.662;2023-09-12T01:38:11;25.50;93.00
21169;DHT22;10742;51.816;8.662;2023-09-12T01:41:13;25.50;93.00
21169;DHT22;10742;51.816;8.662;2023-09-12T01:44:17;25.50;93.10
21169;DHT22;10742;51.816;8.662;2023-09-12T01:47:21;25.40;93.20
21169;DHT22;10742;51.816;8.662;2023-09-12T01:50:26;25.40;93.20
21169;DHT22;10742;51.816;8.662;2023-09-12T01:53:29;25.40;93.10
21169;DHT22;10742;51.816;8.662;2023-09-12T01:56:33;25.40;93.00
21169;DHT22;10742;51.816;8.662;2023-09-12T01:59:36;25.30;92.80
21169;DHT22;10742;51.816;8.662;2023-09-12T02:02:38;25.30;92.90
21169;DHT22;10742;51.816;8.662;2023-09-12T02:05:41;25.30;92.90
21169;DHT22;10742;51.816;8.662;2023-09-12T02:08:43;25.30;92.90
21169;DHT22;10742;51.816;8.662;2023-09-12T02:11:48;25.30;92.90
21169;DHT22;10742;51.816;8.662;2023-09-12T02:14:51;25.20;92.90
21169;DHT22;10742;51.816;8.662;2023-09-12T02:17:53;25.20;92.90
21169;DHT22;10742;51.816;8.662;2023-09-12T02:20:55;25.20;93.00
21169;DHT22;10742;51.816;8.662;2023-09-12T02:23:58;25.20;93.00
21169;DHT22;10742;51.816;8.662;2023-09-12T02:27:00;25.20;93.00
21169;DHT22;10742;51.816;8.662;2023-09-12T02:30:03;25.20;93.00
21169;DHT22;10742;51.816;8.662;2023-09-12T02:33:06;25.20;93.00
21169;DHT22;10742;51.816;8.662;2023-09-12T02:36:08;25.20;93.00
21169;DHT22;10742;51.816;8.662;2023-09-12T02:39:11;25.20;93.10
21169;DHT22;10742;51.816;8.662;2023-09-12T02:42:13;25.20;93.10
21169;DHT22;10742;51.816;8.662;2023-09-12T02:45:15;25.20;93.30
21169;DHT22;10742;51.816;8.662;2023-09-12T02:48:18;25.10;93.10
21169;DHT22;10742;51.816;8.662;2023-09-12T02:51:21;25.10;93.20
21169;DHT22;10742;51.816;8.662;2023-09-12T02:54:24;25.00;93.40
21169;DHT22;10742;51.816;8.662;2023-09-12T02:57:27;24.90;93.50
21169;DHT22;10742;51.816;8.662;2023-09-12T03:00:29;24.80;93.70
21169;DHT22;10742;51.816;8.662;2023-09-12T03:03:32;24.70;93.80
21169;DHT22;10742;51.816;8.662;2023-09-12T03:06:35;24.60;94.00
21169;DHT22;10742;51.816;8.662;2023-09-12T03:09:37;24.60;94.20
21169;DHT22;10742;51.816;8.662;2023-09-12T03:12:40;24.50;94.30
21169;DHT22;10742;51.816;8.662;2023-09-12T03:15:43;24.40;94.50
21169;DHT22;10742;51.816;8.662;2023-09-12T03:18:45;24.40;94.60
21169;DHT22;10742;51.816;8.662;2023-09-12T03:21:48;24.30;94.80
21169;DHT22;10742;51.816;8.662;2023-09-12T03:24:51;24.30;94.90
21169;DHT22;10742;51.816;8.662;2023-09-12T03:27:53;24.30;94.90
21169;DHT22;10742;51.816;8.662;2023-09-12T03:31:12;24.30;94.90
21169;DHT22;10742;51.816;8.662;2023-09-12T03:34:16;24.30;95.30
21169;DHT22;10742;51.816;8.662;2023-09-12T03:37:19;24.40;95.00
21169;DHT22;10742;51.816;8.662;2023-09-12T03:40:24;24.30;95.10
21169;DHT22;10742;51.816;8.662;2023-09-12T03:43:27;24.30;95.10
21169;DHT22;10742;51.816;8.662;2023-09-12T03:46:30;24.40;95.10
21169;DHT22;10742;51.816;8.662;2023-09-12T03:49:32;24.30;95.20
21169;DHT22;10742;51.816;8.662;2023-09-12T03:52:35;24.40;95.20
21169;DHT22;10742;51.816;8.662;2023-09-12T03:55:37;24.40;95.20
21169;DHT22;10742;51.816;8.662;2023-09-12T03:58:40;24.40;95.20
21169;DHT22;10742;51.816;8.662;2023-09-12T04:01:42;24.40;95.30
21169;DHT22;10742;51.816;8.662;2023-09-12T04:04:44;24.50;95.30
21169;DHT22;10742;51.816;8.662;2023-09-12T04:07:47;24.50;95.40
21169;DHT22;10742;51.816;8.662;2023-09-12T04:10:49;24.50;95.30
21169;DHT22;10742;51.816;8.662;2023-09-12T04:13:52;24.50;95.40
21169;DHT22;10742;51.816;8.662;2023-09-12T04:16:54;24.50;95.40
21169;DHT22;10742;51.816;8.662;2023-09-12T04:19:57;24.50;95.40
21169;DHT22;10742;51.816;8.662;2023-09-12T04:23:02;24.50;95.50
21169;DHT22;10742;51.816;8.662;2023-09-12T04:26:06;24.50;95.60
21169;DHT22;10742;51.816;8.662;2023-09-12T04:29:08;24.50;95.50
21169;DHT22;10742;51.816;8.662;2023-09-12T04:32:11;24.50;95.50
21169;DHT22;10742;51.816;8.662;2023-09-12T04:35:13;24.50;95.60
21169;DHT22;10742;51.816;8.662;2023-09-12T04:38:16;24.50;95.60
21169;DHT22;10742;51.816;8.662;2023-09-12T04:41:19;24.60;95.70
21169;DHT22;10742;51.816;8.662;2023-09-12T04:44:21;24.60;95.70
21169;DHT22;10742;51.816;8.662;2023-09-12T04:47:23;24.60;95.80
21169;DHT22;10742;51.816;8.662;2023-09-12T04:50:26;24.60;95.80
21169;DHT22;10742;51.816;8.662;2023-09-12T04:53:28;24.60;95.80
21169;DHT22;10742;51.816;8.662;2023-09-12T04:56:37;24.60;95.80
21169;DHT22;10742;51.816;8.662;2023-09-12T04:59:40;24.60;95.80
21169;DHT22;10742;51.816;8.662;2023-09-12T05:02:42;24.70;95.80
21169;DHT22;10742;51.816;8.662;2023-09-12T05:05:48;24.70;95.80
21169;DHT22;10742;51.816;8.662;2023-09-12T05:08:52;24.70;95.90
21169;DHT22;10742;51.816;8.662;2023-09-12T05:11:54;24.80;95.80
21169;DHT22;10742;51.816;8.662;2023-09-12T05:14:57;24.80;95.80
21169;DHT22;10742;51.816;8.662;2023-09-12T05:17:59;24.80;96.20
21169;DHT22;10742;51.816;8.662;2023-09-12T05:21:02;24.80;96.10
21169;DHT22;10742;51.816;8.662;2023-09-12T05:24:05;24.90;96.40
21169;DHT22;10742;51.816;8.662;2023-09-12T05:27:08;24.90;95.90
21169;DHT22;10742;51.816;8.662;2023-09-12T05:30:10;24.90;95.80
21169;DHT22;10742;51.816;8.662;2023-09-12T05:33:13;24.90;95.80
21169;DHT22;10742;51.816;8.662;2023-09-12T05:36:15;25.00;95.90
21169;DHT22;10742;51.816;8.662;2023-09-12T05:39:21;25.00;95.90
21169;DHT22;10742;51.816;8.662;2023-09-12T05:42:23;25.00;96.10
21169;DHT22;10742;51.816;8.662;2023-09-12T05:45:26;25.00;96.00
21169;DHT22;10742;51.816;8.662;2023-09-12T05:48:29;25.10;95.90
21169;DHT22;10742;51.816;8.662;2023-09-12T05:51:32;25.10;95.90
21169;DHT22;10742;51.816;8.662;2023-09-12T05:54:35;25.10;95.90
21169;DHT22;10742;51.816;8.662;2023-09-12T05:57:38;25.10;95.90
21169;DHT22;10742;51.816;8.662;2023-09-12T06:00:40;25.20;95.90
21169;DHT22;10742;51.816;8.662;2023-09-12T06:03:43;25.20;95.80
21169;DHT22;10742;51.816;8.662;2023-09-12T06:06:46;25.20;95.70
21169;DHT22;10742;51.816;8.662;2023-09-12T06:09:49;25.30;95.70
21169;DHT22;10742;51.816;8.662;2023-09-12T06:12:51;25.30;95.60
21169;DHT22;10742;51.816;8.662;2023-09-12T06:15:54;25.40;95.60
21169;DHT22;10742;51.816;8.662;2023-09-12T06:18:56;25.50;95.30
21169;DHT22;10742;51.816;8.662;2023-09-12T06:21:58;25.50;95.20
21169;DHT22;10742;51.816;8.662;2023-09-12T06:25:01;25.60;94.80
21169;DHT22;10742;51.816;8.662;2023-09-12T06:28:05;25.60;94.70
21169;DHT22;10742;51.816;8.662;2023-09-12T06:31:10;25.70;94.50
21169;DHT22;10742;51.816;8.662;2023-09-12T06:34:12;25.80;94.30
21169;DHT22;10742;51.816;8.662;2023-09-12T06:37:15;25.90;94.30
21169;DHT22;10742;51.816;8.662;2023-09-12T06:40:20;25.90;94.10
21169;DHT22;10742;51.816;8.662;2023-09-12T06:43:22;26.00;94.10
21169;DHT22;10742;51.816;8.662;2023-09-12T06:46:26;26.00;93.60
21169;DHT22;10742;51.816;8.662;2023-09-12T06:49:28;26.10;93.50
21169;DHT22;10742;51.816;8.662;2023-09-12T06:52:32;26.20;93.20
21169;DHT22;10742;51.816;8.662;2023-09-12T06:55:34;26.20;92.90
21169;DHT22;10742;51.816;8.662;2023-09-12T06:58:37;26.30;92.80
21169;DHT22;10742;51.816;8.662;2023-09-12T07:01:39;26.30;92.50
21169;DHT22;10742;51.816;8.662;2023-09-12T07:04:42;26.30;92.50
21169;DHT22;10742;51.816;8.662;2023-09-12T07:07:44;26.30;92.20
21169;DHT22;10742;51.816;8.662;2023-09-12T07:10:46;26.40;92.10
21169;DHT22;10742;51.816;8.662;2023-09-12T07:13:49;26.40;92.10
21169;DHT22;10742;51.816;8.662;2023-09-12T07:16:52;26.40;92.10
21169;DHT22;10742;51.816;8.662;2023-09-12T07:19:54;26.40;91.90
21169;DHT22;10742;51.816;8.662;2023-09-12T07:22:56;26.40;91.70
21169;DHT22;10742;51.816;8.662;2023-09-12T07:25:59;26.40;91.80
21169;DHT22;10742;51.816;8.662;2023-09-12T07:29:01;26.40;91.70
21169;DHT22;10742;51.816;8.662;2023-09-12T07:32:06;26.40;91.80
21169;DHT22;10742;51.816;8.662;2023-09-12T07:35:08;26.50;91.70
21169;DHT22;10742;51.816;8.662;2023-09-12T07:38:11;26.50;91.60
21169;DHT22;10742;51.816;8.662;2023-09-12T07:41:13;26.50;91.60
21169;DHT22;10742;51.816;8.662;2023-09-12T07:44:15;26.60;91.60
21169;DHT22;10742;51.816;8.662;2023-09-12T07:47:19;26.60;91.70
21169;DHT22;10742;51.816;8.662;2023-09-12T07:50:21;26.60;91.70
21169;DHT22;10742;51.816;8.662;2023-09-12T07:53:23;26.60;91.50
21169;DHT22;10742;51.816;8.662;2023-09-12T07:56:26;26.60;91.50
21169;DHT22;10742;51.816;8.662;2023-09-12T07:59:29;26.60;91.80
21169;DHT22;10742;51.816;8.662;2023-09-12T08:02:31;26.60;91.50
21169;DHT22;10742;51.816;8.662;2023-09-12T08:05:33;26.60;91.50
21169;DHT22;10742;51.816;8.662;2023-09-12T08:08:35;26.60;91.50
21169;DHT22;10742;51.816;8.662;2023-09-12T08:11:38;26.70;91.60
21169;DHT22;10742;51.816;8.662;2023-09-12T08:14:40;26.70;91.70
21169;DHT22;10742;51.816;8.662;2023-09-12T08:17:43;26.80;91.70
21169;DHT22;10742;51.816;8.662;2023-09-12T08:20:45;26.80;91.80
21169;DHT22;10742;51.816;8.662;2023-09-12T08:23:47;26.80;91.80
21169;DHT22;10742;51.816;8.662;2023-09-12T08:26:50;26.90;91.70
21169;DHT22;10742;51.816;8.662;2023-09-12T08:29:52;26.90;91.60
21169;DHT22;10742;51.816;8.662;2023-09-12T08:32:55;26.90;91.60
21169;DHT22;10742;51.816;8.662;2023-09-12T08:35:58;26.90;91.90
21169;DHT22;10742;51.816;8.662;2023-09-12T08:39:00;26.90;91.50
21169;DHT22;10742;51.816;8.662;2023-09-12T08:42:03;26.80;91.40
21169;DHT22;10742;51.816;8.662;2023-09-12T08:45:16;26.70;91.40
21169;DHT22;10742;51.816;8.662;2023-09-12T08:48:20;26.70;91.50
21169;DHT22;10742;51.816;8.662;2023-09-12T08:51:26;26.50;91.50
21169;DHT22;10742;51.816;8.662;2023-09-12T08:54:28;26.50;91.60
21169;DHT22;10742;51.816;8.662;2023-09-12T08:57:33;26.40;91.60
21169;DHT22;10742;51.816;8.662;2023-09-12T09:00:36;26.30;91.80
21169;DHT22;10742;51.816;8.662;2023-09-12T09:03:41;26.20;91.90
21169;DHT22;10742;51.816;8.662;2023-09-12T09:06:44;26.10;92.10
21169;DHT22;10742;51.816;8.662;2023-09-12T09:09:48;25.90;92.50
21169;DHT22;10742;51.816;8.662;2023-09-12T09:12:50;25.80;92.40
21169;DHT22;10742;51.816;8.662;2023-09-12T09:16:15;25.60;92.60
21169;DHT22;10742;51.816;8.662;2023-09-12T09:19:21;25.50;93.00
21169;DHT22;10742;51.816;8.662;2023-09-12T09:22:23;25.40;93.00
21169;DHT22;10742;51.816;8.662;2023-09-12T09:25:26;25.30;93.30
21169;DHT22;10742;51.816;8.662;2023-09-12T09:28:28;25.20;93.60
21169;DHT22;10742;51.816;8.662;2023-09-12T09:31:30;25.20;93.80
21169;DHT22;10742;51.816;8.662;2023-09-12T09:34:39;25.20;93.80
21169;DHT22;10742;51.816;8.662;2023-09-12T09:37:42;25.20;93.90
21169;DHT22;10742;51.816;8.662;2023-09-12T09:40:44;25.20;93.80
21169;DHT22;10742;51.816;8.662;2023-09-12T09:43:52;25.20;94.10
21169;DHT22;10742;51.816;8.662;2023-09-12T09:46:59;25.10;94.20
21169;DHT22;10742;51.816;8.662;2023-09-12T09:50:05;25.10;94.30
21169;DHT22;10742;51.816;8.662;2023-09-12T09:53:07;25.20;94.30
21169;DHT22;10742;51.816;8.662;2023-09-12T09:56:11;25.20;94.40
21169;DHT22;10742;51.816;8.662;2023-09-12T09:59:15;25.30;94.40
21169;DHT22;10742;51.816;8.662;2023-09-12T10:02:25;25.50;94.20
21169;DHT22;10742;51.816;8.662;2023-09-12T10:05:32;25.50;94.20
21169;DHT22;10742;51.816;8.662;2023-09-12T10:08:35;25.60;94.00
21169;DHT22;10742;51.816;8.662;2023-09-12T10:11:40;25.70;93.90
21169;DHT22;10742;51.816;8.662;2023-09-12T10:14:43;25.80;93.70
21169;DHT22;10742;51.816;8.662;2023-09-12T10:17:47;25.90;93.70
21169;DHT22;10742;51.816;8.662;2023-09-12T10:20:55;25.90;93.60
21169;DHT22;10742;51.816;8.662;2023-09-12T10:24:03;26.00;93.60
21169;DHT22;10742;51.816;8.662;2023-09-12T10:27:06;26.00;93.50
21169;DHT22;10742;51.816;8.662;2023-09-12T10:30:08;26.00;93.60
21169;DHT22;10742;51.816;8.662;2023-09-12T10:33:11;26.10;93.60
21169;DHT22;10742;51.816;8.662;2023-09-12T10:36:17;26.10;93.40
21169;DHT22;10742;51.816;8.662;2023-09-12T10:39:20;26.00;93.70
21169;DHT22;10742;51.816;8.662;2023-09-12T10:42:27;26.00;93.70
21169;DHT22;10742;51.816;8.662;2023-09-12T10:45:32;26.00;93.60
21169;DHT22;10742;51.816;8.662;2023-09-12T10:48:37;25.90;93.50
21169;DHT22;10742;51.816;8.662;2023-09-12T10:51:43;25.80;93.50
21169;DHT22;10742;51.816;8.662;2023-09-12T10:54:46;25.60;93.70
21169;DHT22;10742;51.816;8.662;2023-09-12T10:58:06;25.40;94.20
21169;DHT22;10742;51.816;8.662;2023-09-12T11:01:25;25.20;94.90
21169;DHT22;10742;51.816;8.662;2023-09-12T11:10:38;25.10;95.20
21169;DHT22;10742;51.816;8.662;2023-09-12T11:13:41;25.00;94.90
21169;DHT22;10742;51.816;8.662;2023-09-12T11:16:43;25.00;94.90
21169;DHT22;10742;51.816;8.662;2023-09-12T11:20:06;25.00;95.10
21169;DHT22;10742;51.816;8.662;2023-09-12T11:23:15;24.90;95.50
21169;DHT22;10742;51.816;8.662;2023-09-12T11:26:18;24.90;95.50
21169;DHT22;10742;51.816;8.662;2023-09-12T11:29:22;24.90;95.70
21169;DHT22;10742;51.816;8.662;2023-09-12T11:32:35;24.90;95.80
21169;DHT22;10742;51.816;8.662;2023-09-12T11:35:38;24.90;95.80
21169;DHT22;10742;51.816;8.662;2023-09-12T11:38:43;24.90;95.80
21169;DHT22;10742;51.816;8.662;2023-09-12T11:41:46;24.90;95.80
21169;DHT22;10742;51.816;8.662;2023-09-12T11:44:49;25.00;96.00
21169;DHT22;10742;51.816;8.662;2023-09-12T11:47:53;25.00;96.00
21169;DHT22;10742;51.816;8.662;2023-09-12T11:50:56;25.10;96.40
21169;DHT22;10742;51.816;8.662;2023-09-12T11:53:59;25.20;96.90
21169;DHT22;10742;51.816;8.662;2023-09-12T11:57:03;25.30;97.00
21169;DHT22;10742;51.816;8.662;2023-09-12T12:00:06;25.50;96.60
21169;DHT22;10742;51.816;8.662;2023-09-12T12:03:14;25.60;96.60
21169;DHT22;10742;51.816;8.662;2023-09-12T12:06:20;25.70;96.60
21169;DHT22;10742;51.816;8.662;2023-09-12T12:09:22;25.80;95.90
21169;DHT22;10742;51.816;8.662;2023-09-12T12:12:25;25.90;96.10
21169;DHT22;10742;51.816;8.662;2023-09-12T12:15:27;26.00;95.80
21169;DHT22;10742;51.816;8.662;2023-09-12T12:18:30;26.20;95.30
21169;DHT22;10742;51.816;8.662;2023-09-12T12:21:33;26.30;95.30
21169;DHT22;10742;51.816;8.662;2023-09-12T12:24:41;26.40;94.90
21169;DHT22;10742;51.816;8.662;2023-09-12T12:27:44;26.60;94.50
21169;DHT22;10742;51.816;8.662;2023-09-12T12:30:46;26.70;94.80
21169;DHT22;10742;51.816;8.662;2023-09-12T12:33:56;26.90;94.60
21169;DHT22;10742;51.816;8.662;2023-09-12T12:36:59;27.00;94.20
21169;DHT22;10742;51.816;8.662;2023-09-12T12:40:02;27.10;94.30
21169;DHT22;10742;51.816;8.662;2023-09-12T12:43:05;27.30;94.20
21169;DHT22;10742;51.816;8.662;2023-09-12T12:46:17;27.40;94.10
21169;DHT22;10742;51.816;8.662;2023-09-12T12:49:21;27.70;93.70
21169;DHT22;10742;51.816;8.662;2023-09-12T12:52:25;27.80;92.90
21169;DHT22;10742;51.816;8.662;2023-09-12T12:55:27;27.90;92.70
21169;DHT22;10742;51.816;8.662;2023-09-12T12:58:30;28.00;92.60
21169;DHT22;10742;51.816;8.662;2023-09-12T13:01:35;28.10;92.60
21169;DHT22;10742;51.816;8.662;2023-09-12T13:04:38;28.20;92.20
21169;DHT22;10742;51.816;8.662;2023-09-12T13:07:41;28.30;92.20
21169;DHT22;10742;51.816;8.662;2023-09-12T13:10:43;28.40;92.00
21169;DHT22;10742;51.816;8.662;2023-09-12T13:13:48;28.40;91.80
21169;DHT22;10742;51.816;8.662;2023-09-12T13:16:54;28.50;91.70
21169;DHT22;10742;51.816;8.662;2023-09-12T13:19:56;28.50;91.50
21169;DHT22;10742;51.816;8.662;2023-09-12T13:22:58;28.50;91.40
21169;DHT22;10742;51.816;8.662;2023-09-12T13:26:01;28.50;91.40
21169;DHT22;10742;51.816;8.662;2023-09-12T13:29:05;28.60;91.50
21169;DHT22;10742;51.816;8.662;2023-09-12T13:32:07;28.60;91.20
21169;DHT22;10742;51.816;8.662;2023-09-12T13:35:09;28.60;91.30
21169;DHT22;10742;51.816;8.662;2023-09-12T13:38:12;28.60;91.30
21169;DHT22;10742;51.816;8.662;2023-09-12T13:41:14;28.70;91.30
21169;DHT22;10742;51.816;8.662;2023-09-12T13:44:17;28.70;91.10
21169;DHT22;10742;51.816;8.662;2023-09-12T13:47:22;28.70;90.80
21169;DHT22;10742;51.816;8.662;2023-09-12T13:50:28;28.60;90.90
21169;DHT22;10742;51.816;8.662;2023-09-12T13:53:31;28.60;90.90
21169;DHT22;10742;51.816;8.662;2023-09-12T13:56:34;28.60;91.00
21169;DHT22;10742;51.816;8.662;2023-09-12T13:59:37;28.50;91.00
21169;DHT22;10742;51.816;8.662;2023-09-12T14:02:44;28.60;91.30
21169;DHT22;10742;51.816;8.662;2023-09-12T14:05:47;28.50;91.30
21169;DHT22;10742;51.816;8.662;2023-09-12T14:08:49;28.60;91.30
21169;DHT22;10742;51.816;8.662;2023-09-12T14:11:52;28.60;91.30
21169;DHT22;10742;51.816;8.662;2023-09-12T14:14:58;28.60;91.30
21169;DHT22;10742;51.816;8.662;2023-09-12T14:18:04;28.60;91.30
21169;DHT22;10742;51.816;8.662;2023-09-12T14:21:07;28.60;91.30
21169;DHT22;10742;51.816;8.662;2023-09-12T14:24:10;28.70;90.90
21169;DHT22;10742;51.816;8.662;2023-09-12T14:27:13;28.70;90.50
21169;DHT22;10742;51.816;8.662;2023-09-12T14:30:21;28.60;90.40
21169;DHT22;10742;51.816;8.662;2023-09-12T14:33:24;28.50;90.50
21169;DHT22;10742;51.816;8.662;2023-09-12T14:36:27;28.50;90.60
21169;DHT22;10742;51.816;8.662;2023-09-12T14:39:29;28.50;90.80
21169;DHT22;10742;51.816;8.662;2023-09-12T14:42:34;28.40;90.70
21169;DHT22;10742;51.816;8.662;2023-09-12T14:45:37;28.40;90.80
21169;DHT22;10742;51.816;8.662;2023-09-12T14:48:39;28.40;91.00
21169;DHT22;10742;51.816;8.662;2023-09-12T14:51:43;28.40;91.10
21169;DHT22;10742;51.816;8.662;2023-09-12T14:54:46;28.40;91.10
21169;DHT22;10742;51.816;8.662;2023-09-12T14:57:48;28.40;91.00
21169;DHT22;10742;51.816;8.662;2023-09-12T15:00:51;28.40;91.00
21169;DHT22;10742;51.816;8.662;2023-09-12T15:03:54;28.30;91.10
21169;DHT22;10742;51.816;8.662;2023-09-12T15:06:56;28.30;91.30
21169;DHT22;10742;51.816;8.662;2023-09-12T15:09:59;28.30;91.40
21169;DHT22;10742;51.816;8.662;2023-09-12T15:13:21;28.20;91.40
21169;DHT22;10742;51.816;8.662;2023-09-12T15:16:42;28.30;91.50
21169;DHT22;10742;51.816;8.662;2023-09-12T15:20:04;28.30;91.50
21169;DHT22;10742;51.816;8.662;2023-09-12T15:23:26;28.20;91.50
21169;DHT22;10742;51.816;8.662;2023-09-12T15:26:49;28.20;91.40
21169;DHT22;10742;51.816;8.662;2023-09-12T15:30:11;28.20;91.40
21169;DHT22;10742;51.816;8.662;2023-09-12T15:33:32;28.10;91.40
21169;DHT22;10742;51.816;8.662;2023-09-12T15:37:13;28.10;91.50
21169;DHT22;10742;51.816;8.662;2023-09-12T15:40:37;28.10;91.70
21169;DHT22;10742;51.816;8.662;2023-09-12T15:43:58;28.10;91.80
21169;DHT22;10742;51.816;8.662;2023-09-12T15:47:22;28.10;92.00
21169;DHT22;10742;51.816;8.662;2023-09-12T15:50:43;28.10;92.00
21169;DHT22;10742;51.816;8.662;2023-09-12T15:54:04;28.10;92.00
21169;DHT22;10742;51.816;8.662;2023-09-12T15:57:25;28.10;92.00
21169;DHT22;10742;51.816;8.662;2023-09-12T16:00:47;28.10;92.10
21169;DHT22;10742;51.816;8.662;2023-09-12T16:04:08;28.20;92.10
21169;DHT22;10742;51.816;8.662;2023-09-12T16:07:30;28.20;92.20
21169;DHT22;10742;51.816;8.662;2023-09-12T16:10:51;28.10;92.30
21169;DHT22;10742;51.816;8.662;2023-09-12T16:14:12;28.10;92.40
21169;DHT22;10742;51.816;8.662;2023-09-12T16:17:34;28.10;92.40
21169;DHT22;10742;51.816;8.662;2023-09-12T16:20:58;28.10;92.50
21169;DHT22;10742;51.816;8.662;2023-09-12T16:24:19;28.00;92.70
21169;DHT22;10742;51.816;8.662;2023-09-12T16:27:43;27.90;92.70
21169;DHT22;10742;51.816;8.662;2023-09-12T16:31:04;27.90;92.80
21169;DHT22;10742;51.816;8.662;2023-09-12T16:34:27;27.80;92.80
21169;DHT22;10742;51.816;8.662;2023-09-12T16:37:51;27.80;92.80
21169;DHT22;10742;51.816;8.662;2023-09-12T16:41:13;27.70;92.80
21169;DHT22;10742;51.816;8.662;2023-09-12T16:44:34;27.60;92.80
21169;DHT22;10742;51.816;8.662;2023-09-12T16:47:55;27.50;92.90
21169;DHT22;10742;51.816;8.662;2023-09-12T16:51:16;27.50;93.00
21169;DHT22;10742;51.816;8.662;2023-09-12T16:54:38;27.50;93.10
21169;DHT22;10742;51.816;8.662;2023-09-12T16:58:00;27.40;93.10
21169;DHT22;10742;51.816;8.662;2023-09-12T17:01:24;27.30;93.30
21169;DHT22;10742;51.816;8.662;2023-09-12T17:04:46;27.30;93.30
21169;DHT22;10742;51.816;8.662;2023-09-12T17:08:08;27.20;93.30
21169;DHT22;10742;51.816;8.662;2023-09-12T17:11:10;27.20;93.40
21169;DHT22;10742;51.816;8.662;2023-09-12T17:14:12;27.20;93.50
21169;DHT22;10742;51.816;8.662;2023-09-12T17:17:16;27.10;93.60
21169;DHT22;10742;51.816;8.662;2023-09-12T17:20:18;27.10;93.70
21169;DHT22;10742;51.816;8.662;2023-09-12T17:23:21;27.10;93.80
21169;DHT22;10742;51.816;8.662;2023-09-12T17:26:23;27.10;93.90
21169;DHT22;10742;51.816;8.662;2023-09-12T17:29:25;27.00;93.80
21169;DHT22;10742;51.816;8.662;2023-09-12T17:32:28;27.10;93.80
21169;DHT22;10742;51.816;8.662;2023-09-12T17:35:32;27.00;93.90
21169;DHT22;10742;51.816;8.662;2023-09-12T17:38:34;26.90;93.90
21169;DHT22;10742;51.816;8.662;2023-09-12T17:41:37;26.90;93.90
21169;DHT22;10742;51.816;8.662;2023-09-12T17:44:39;26.90;94.00
21169;DHT22;10742;51.816;8.662;2023-09-12T17:47:42;26.80;94.00
21169;DHT22;10742;51.816;8.662;2023-09-12T17:50:59;26.80;94.10
21169;DHT22;10742;51.816;8.662;2023-09-12T17:54:01;26.70;94.20
21169;DHT22;10742;51.816;8.662;2023-09-12T17:57:04;26.70;94.20
21169;DHT22;10742;51.816;8.662;2023-09-12T18:00:06;26.70;94.60
21169;DHT22;10742;51.816;8.662;2023-09-12T18:03:15;26.60;94.30
21169;DHT22;10742;51.816;8.662;2023-09-12T18:06:19;26.60;94.40
21169;DHT22;10742;51.816;8.662;2023-09-12T18:09:22;26.50;94.40
21169;DHT22;10742;51.816;8.662;2023-09-12T18:12:24;26.50;94.50
21169;DHT22;10742;51.816;8.662;2023-09-12T18:15:28;26.50;94.60
21169;DHT22;10742;51.816;8.662;2023-09-12T18:18:31;26.40;94.70
21169;DHT22;10742;51.816;8.662;2023-09-12T18:21:34;26.40;94.80
21169;DHT22;10742;51.816;8.662;2023-09-12T18:24:37;26.40;94.80
21169;DHT22;10742;51.816;8.662;2023-09-12T18:27:40;26.30;94.80
21169;DHT22;10742;51.816;8.662;2023-09-12T18:30:42;26.30;94.90
21169;DHT22;10742;51.816;8.662;2023-09-12T18:33:45;26.30;94.90
21169;DHT22;10742;51.816;8.662;2023-09-12T18:36:47;26.30;95.00
21169;DHT22;10742;51.816;8.662;2023-09-12T18:39:50;26.20;95.00
21169;DHT22;10742;51.816;8.662;2023-09-12T18:42:52;26.20;95.10
21169;DHT22;10742;51.816;8.662;2023-09-12T18:45:54;26.20;95.20
21169;DHT22;10742;51.816;8.662;2023-09-12T18:48:57;26.10;95.20
21169;DHT22;10742;51.816;8.662;2023-09-12T18:51:59;26.00;95.30
21169;DHT22;10742;51.816;8.662;2023-09-12T18:55:01;26.00;95.40
21169;DHT22;10742;51.816;8.662;2023-09-12T18:58:04;25.90;95.50
21169;DHT22;10742;51.816;8.662;2023-09-12T19:01:07;25.90;95.60
21169;DHT22;10742;51.816;8.662;2023-09-12T19:04:27;25.90;95.80
21169;DHT22;10742;51.816;8.662;2023-09-12T19:07:31;25.90;96.10
21169;DHT22;10742;51.816;8.662;2023-09-12T19:10:33;25.80;95.80
21169;DHT22;10742;51.816;8.662;2023-09-12T19:13:36;25.80;96.40
21169;DHT22;10742;51.816;8.662;2023-09-12T19:16:39;25.80;96.10
21169;DHT22;10742;51.816;8.662;2023-09-12T19:19:41;25.70;96.30
21169;DHT22;10742;51.816;8.662;2023-09-12T19:22:43;25.70;96.30
21169;DHT22;10742;51.816;8.662;2023-09-12T19:25:46;25.70;96.40
21169;DHT22;10742;51.816;8.662;2023-09-12T19:28:50;25.70;96.50
21169;DHT22;10742;51.816;8.662;2023-09-12T19:31:52;25.70;96.60
21169;DHT22;10742;51.816;8.662;2023-09-12T19:34:55;25.70;96.50
21169;DHT22;10742;51.816;8.662;2023-09-12T19:37:57;25.70;96.60
21169;DHT22;10742;51.816;8.662;2023-09-12T19:41:03;25.70;96.70
21169;DHT22;10742;51.816;8.662;2023-09-12T19:44:06;25.70;96.70